createdAt,value
2016-10-28T00:00:55.868Z,40.4
2016-10-28T00:01:56.750Z,40.3
2016-10-28T00:02:56.287Z,40.3
2016-10-28T00:03:55.886Z,40.2
2016-10-28T00:04:56.629Z,40.3
2016-10-28T00:05:56.409Z,40.11
2016-10-28T00:06:55.957Z,39.92
2016-10-28T00:07:56.968Z,40.3
2016-10-28T00:08:56.534Z,40.11
2016-10-28T00:09:55.613Z,40.4
2016-10-28T00:10:56.809Z,40.11
2016-10-28T00:11:56.652Z,40.2
2016-10-28T00:12:55.648Z,40.01
2016-10-28T00:13:56.931Z,40.3
2016-10-28T00:14:56.775Z,40.3
2016-10-28T00:15:56.082Z,40.3
2016-10-28T00:16:57.069Z,40.3
2016-10-28T00:17:56.896Z,40.11
2016-10-28T00:18:56.290Z,40.3
2016-10-28T00:19:55.735Z,40.2
2016-10-28T00:20:56.757Z,40.3
2016-10-28T00:21:56.328Z,40.3
2016-10-28T00:22:56.017Z,40.01
2016-10-28T00:23:57.124Z,40.3
2016-10-28T00:24:56.181Z,40.3
2016-10-28T00:25:56.036Z,40.3
2016-10-28T00:26:56.782Z,40.3
2016-10-28T00:27:56.617Z,40.2
2016-10-28T00:28:56.057Z,40.3
2016-10-28T00:29:56.814Z,40.3
2016-10-28T00:30:56.739Z,40.2
2016-10-28T00:31:56.076Z,40.11
2016-10-28T00:32:57.016Z,40.11
2016-10-28T00:33:56.859Z,40.3
2016-10-28T00:34:55.853Z,40.11
2016-10-28T00:35:55.789Z,39.92
2016-10-28T00:36:56.980Z,40.11
2016-10-28T00:37:55.979Z,40.2
2016-10-28T00:38:55.808Z,40.2
2016-10-28T00:39:57.155Z,40.3
2016-10-28T00:40:56.516Z,40.3
2016-10-28T00:41:56.192Z,40.2
2016-10-28T00:42:56.965Z,40.5
2016-10-28T00:43:56.222Z,40.4
2016-10-28T00:44:56.164Z,40.4
2016-10-28T00:45:56.988Z,40.4
2016-10-28T00:46:56.395Z,40.4
2016-10-28T00:47:56.186Z,40.5
2016-10-28T00:48:56.986Z,40.69
2016-10-28T00:49:56.880Z,40.4
2016-10-28T00:50:55.897Z,40.3
2016-10-28T00:51:55.901Z,40.59
2016-10-28T00:52:56.951Z,40.59
2016-10-28T00:53:56.261Z,40.59
2016-10-28T00:54:55.927Z,40.4
2016-10-28T00:55:57.076Z,40.5
2016-10-28T00:56:56.071Z,40.3
2016-10-28T00:57:57.311Z,40.5
2016-10-28T00:58:57.246Z,40.4
2016-10-28T00:59:56.557Z,40.5
2016-10-28T01:00:56.300Z,40.5
2016-10-28T01:01:57.058Z,40.69
2016-10-28T01:02:56.678Z,40.59
2016-10-28T01:03:56.299Z,40.78
2016-10-28T01:04:57.357Z,40.5
2016-10-28T01:05:56.802Z,40.69
2016-10-28T01:06:56.057Z,40.59
2016-10-28T01:07:57.080Z,40.69
2016-10-28T01:08:56.927Z,40.69
2016-10-28T01:09:56.032Z,40.67
2016-10-28T01:10:57.090Z,40.77
2016-10-28T01:11:57.295Z,40.77
2016-10-28T01:12:56.053Z,41.08
2016-10-28T01:13:56.061Z,40.86
2016-10-28T01:14:57.221Z,40.96
2016-10-28T01:15:56.482Z,40.86
2016-10-28T01:16:56.083Z,41.08
2016-10-28T01:17:56.981Z,40.98
2016-10-28T01:18:56.651Z,40.98
2016-10-28T01:19:57.623Z,40.86
2016-10-28T01:20:57.104Z,40.77
2016-10-28T01:21:56.725Z,40.96
2016-10-28T01:22:56.174Z,40.59
2016-10-28T01:23:57.336Z,40.86
2016-10-28T01:24:56.586Z,40.96
2016-10-28T01:25:56.195Z,40.96
2016-10-28T01:26:57.531Z,40.77
2016-10-28T01:27:56.707Z,41.05
2016-10-28T01:28:56.218Z,40.96
2016-10-28T01:29:57.274Z,40.96
2016-10-28T01:30:57.143Z,40.98
2016-10-28T01:31:56.500Z,41.05
2016-10-28T01:32:57.425Z,40.88
2016-10-28T01:33:57.271Z,40.19
2016-10-28T01:34:56.616Z,40.86
2016-10-28T01:35:57.548Z,40.96
2016-10-28T01:36:57.127Z,41.08
2016-10-28T01:37:56.698Z,40.96
2016-10-28T01:38:57.669Z,40.09
2016-10-28T01:39:57.564Z,40.96
2016-10-28T01:40:56.824Z,40.98
2016-10-28T01:41:56.579Z,41.08
2016-10-28T01:42:57.684Z,41.05
2016-10-28T01:43:56.946Z,41.05
2016-10-28T01:44:56.645Z,40.96
2016-10-28T01:45:57.651Z,40.96
2016-10-28T01:46:57.128Z,41.05
2016-10-28T01:47:56.303Z,40.96
2016-10-28T01:48:57.680Z,41.05
2016-10-28T01:49:56.927Z,40.96
2016-10-28T01:50:56.326Z,40.86
2016-10-28T01:51:57.600Z,40.67
2016-10-28T01:52:57.050Z,40.86
2016-10-28T01:53:56.675Z,41.05
2016-10-28T01:54:57.642Z,40.96
2016-10-28T01:55:57.487Z,41.05
2016-10-28T01:56:56.799Z,40.96
2016-10-28T01:57:56.375Z,40.77
2016-10-28T01:58:57.660Z,40.77
2016-10-28T01:59:56.971Z,40.86
2016-10-28T02:00:56.394Z,40.96
2016-10-28T02:01:57.784Z,40.86
2016-10-28T02:02:57.041Z,40.96
2016-10-28T02:03:56.729Z,41.05
2016-10-28T02:04:57.838Z,40.77
2016-10-28T02:05:57.216Z,40.96
2016-10-28T02:06:56.750Z,39.9
2016-10-28T02:07:57.819Z,40.77
2016-10-28T02:08:57.028Z,40.77
2016-10-28T02:09:56.559Z,41.05
2016-10-28T02:10:57.717Z,40.57
2016-10-28T02:11:57.462Z,40.57
2016-10-28T02:12:56.795Z,40.96
2016-10-28T02:13:56.488Z,40.47
2016-10-28T02:14:57.635Z,40.47
2016-10-28T02:15:56.636Z,40.77
2016-10-28T02:16:57.872Z,40.57
2016-10-28T02:17:57.394Z,40.28
2016-10-28T02:18:56.709Z,40.77
2016-10-28T02:19:57.936Z,40.96
2016-10-28T02:20:57.617Z,40.96
2016-10-28T02:21:57.137Z,40.86
2016-10-28T02:22:56.551Z,40.67
2016-10-28T02:23:57.742Z,40.77
2016-10-28T02:24:57.048Z,40.47
2016-10-28T02:25:56.572Z,40.86
2016-10-28T02:26:57.764Z,40.47
2016-10-28T02:27:57.441Z,41.05
2016-10-28T02:28:56.905Z,40.77
2016-10-28T02:29:57.658Z,40.38
2016-10-28T02:30:57.559Z,40.77
2016-10-28T02:31:56.978Z,40.96
2016-10-28T02:32:56.623Z,40.38
2016-10-28T02:33:57.682Z,40.57
2016-10-28T02:34:56.730Z,40.57
2016-10-28T02:35:56.661Z,40.96
2016-10-28T02:36:57.857Z,40.67
2016-10-28T02:37:57.114Z,41.15
2016-10-28T02:38:58.089Z,40.57
2016-10-28T02:39:57.615Z,40.96
2016-10-28T02:40:56.972Z,41.15
2016-10-28T02:41:56.690Z,41.05
2016-10-28T02:42:58.117Z,41.44
2016-10-28T02:43:57.047Z,40.77
2016-10-28T02:44:56.711Z,41.15
2016-10-28T02:45:58.085Z,41.35
2016-10-28T02:46:57.537Z,40.77
2016-10-28T02:47:57.042Z,40.96
2016-10-28T02:48:58.094Z,41.35
2016-10-28T02:49:57.657Z,41.05
2016-10-28T02:50:56.752Z,40.86
2016-10-28T02:51:57.935Z,40.67
2016-10-28T02:52:57.778Z,40.77
2016-10-28T02:53:57.089Z,40.96
2016-10-28T02:54:58.057Z,40.67
2016-10-28T02:55:57.902Z,40.67
2016-10-28T02:56:57.265Z,41.35
2016-10-28T02:57:56.853Z,40.19
2016-10-28T02:58:58.076Z,40.96
2016-10-28T02:59:57.025Z,40.96
2016-10-28T03:00:56.827Z,41.35
2016-10-28T03:01:57.896Z,41.05
2016-10-28T03:02:57.195Z,41.05
2016-10-28T03:03:57.156Z,41.25
2016-10-28T03:04:58.326Z,41.25
2016-10-28T03:05:57.633Z,41.35
2016-10-28T03:06:57.184Z,41.54
2016-10-28T03:07:57.934Z,40.96
2016-10-28T03:08:57.804Z,41.05
2016-10-28T03:09:57.200Z,40.86
2016-10-28T03:10:58.364Z,40.77
2016-10-28T03:11:57.928Z,41.35
2016-10-28T03:12:57.221Z,41.25
2016-10-28T03:13:58.157Z,41.44
2016-10-28T03:14:58.000Z,41.05
2016-10-28T03:15:56.998Z,40.96
2016-10-28T03:16:56.937Z,41.35
2016-10-28T03:17:57.860Z,41.05
2016-10-28T03:18:57.118Z,40.96
2016-10-28T03:19:58.419Z,40.67
2016-10-28T03:20:58.295Z,41.15
2016-10-28T03:21:57.246Z,41.25
2016-10-28T03:22:57.292Z,40.47
2016-10-28T03:23:58.421Z,40.96
2016-10-28T03:24:57.727Z,41.44
2016-10-28T03:25:57.313Z,40.96
2016-10-28T03:26:58.110Z,41.15
2016-10-28T03:27:57.542Z,40.77
2016-10-28T03:28:57.336Z,41.35
2016-10-28T03:29:58.131Z,41.15
2016-10-28T03:30:58.025Z,40.77
2016-10-28T03:31:57.046Z,40.96
2016-10-28T03:32:58.253Z,41.15
2016-10-28T03:33:58.097Z,41.15
2016-10-28T03:34:57.406Z,41.15
2016-10-28T03:35:58.375Z,41.25
2016-10-28T03:36:58.222Z,41.35
2016-10-28T03:37:57.530Z,41.05
2016-10-28T03:38:58.548Z,40.96
2016-10-28T03:39:58.394Z,41.25
2016-10-28T03:40:57.651Z,41.05
2016-10-28T03:41:57.432Z,41.35
2016-10-28T03:42:58.154Z,41.25
2016-10-28T03:43:57.775Z,41.05
2016-10-28T03:44:57.136Z,40.96
2016-10-28T03:45:58.243Z,40.96
2016-10-28T03:46:57.948Z,40.67
2016-10-28T03:47:57.472Z,40.67
2016-10-28T03:48:58.509Z,40.77
2016-10-28T03:49:57.756Z,41.44
2016-10-28T03:50:57.281Z,40.57
2016-10-28T03:51:58.350Z,41.05
2016-10-28T03:52:57.882Z,40.57
2016-10-28T03:53:57.510Z,40.45
2016-10-28T03:54:58.473Z,41.25
2016-10-28T03:55:58.369Z,41.44
2016-10-28T03:56:57.676Z,40.77
2016-10-28T03:57:57.226Z,41.35
2016-10-28T03:58:58.127Z,41.15
2016-10-28T04:00:12.314Z,40.57
2016-10-28T04:00:58.605Z,40.19
2016-10-28T04:01:58.349Z,41.05
2016-10-28T04:02:57.609Z,40.67
2016-10-28T04:03:57.321Z,40.55
2016-10-28T04:04:58.772Z,40.55
2016-10-28T04:05:57.736Z,40.67
2016-10-28T04:06:57.642Z,40.86
2016-10-28T04:07:58.368Z,40.86
2016-10-28T04:08:57.852Z,40.96
2016-10-28T04:09:57.620Z,40.67
2016-10-28T04:10:58.496Z,40.47
2016-10-28T04:11:57.979Z,40.47
2016-10-28T04:12:57.642Z,41.05
2016-10-28T04:13:58.567Z,40.96
2016-10-28T04:14:58.099Z,40.84
2016-10-28T04:15:57.723Z,40.67
2016-10-28T04:16:58.744Z,41.05
2016-10-28T04:17:58.626Z,40.96
2016-10-28T04:18:57.620Z,40.96
2016-10-28T04:19:57.430Z,41.05
2016-10-28T04:20:58.710Z,40.77
2016-10-28T04:21:58.105Z,40.86
2016-10-28T04:22:57.450Z,40.86
2016-10-28T04:23:58.567Z,40.94
2016-10-28T04:24:57.830Z,41.13
2016-10-28T04:25:57.735Z,41.05
2016-10-28T04:26:58.479Z,40.96
2016-10-28T04:27:58.263Z,41.15
2016-10-28T04:28:57.755Z,40.86
2016-10-28T04:29:58.866Z,40.86
2016-10-28T04:30:58.384Z,40.86
2016-10-28T04:31:57.781Z,40.96
2016-10-28T04:32:58.714Z,40.96
2016-10-28T04:33:58.510Z,40.86
2016-10-28T04:34:57.816Z,41.03
2016-10-28T04:35:57.525Z,40.86
2016-10-28T04:36:58.632Z,41.05
2016-10-28T04:37:57.676Z,40.28
2016-10-28T04:38:58.910Z,40.96
2016-10-28T04:39:58.753Z,41.05
2016-10-28T04:40:58.112Z,41.05
2016-10-28T04:41:57.847Z,40.96
2016-10-28T04:42:58.876Z,40.96
2016-10-28T04:43:58.236Z,40.96
2016-10-28T04:44:57.866Z,40.77
2016-10-28T04:45:58.611Z,40.96
2016-10-28T04:46:58.408Z,41.05
2016-10-28T04:47:57.936Z,40.96
2016-10-28T04:48:58.957Z,41.05
2016-10-28T04:49:58.529Z,40.96
2016-10-28T04:50:57.905Z,40.96
2016-10-28T04:51:58.759Z,40.96
2016-10-28T04:52:58.291Z,40.96
2016-10-28T04:53:57.864Z,41.05
2016-10-28T04:54:57.672Z,40.96
2016-10-28T04:55:58.411Z,40.57
2016-10-28T04:56:58.037Z,40.57
2016-10-28T04:57:59.005Z,40.67
2016-10-28T04:58:58.606Z,40.67
2016-10-28T04:59:58.158Z,40.67
2016-10-28T05:00:57.704Z,40.57
2016-10-28T05:01:58.750Z,40.86
2016-10-28T05:02:58.330Z,40.86
2016-10-28T05:03:58.047Z,40.47
2016-10-28T05:04:59.145Z,40.67
2016-10-28T05:05:58.141Z,40.96
2016-10-28T05:06:57.758Z,40.47
2016-10-28T05:07:59.140Z,40.57
2016-10-28T05:08:58.574Z,40.57
2016-10-28T05:09:58.038Z,40.28
2016-10-28T05:10:58.855Z,40.57
2016-10-28T05:11:58.696Z,40.47
2016-10-28T05:12:58.058Z,40.57
2016-10-28T05:13:58.977Z,40.38
2016-10-28T05:14:58.822Z,40.28
2016-10-28T05:15:57.818Z,40.38
2016-10-28T05:16:57.775Z,40.38
2016-10-28T05:17:58.682Z,40.19
2016-10-28T05:18:57.940Z,40.47
2016-10-28T05:19:59.161Z,40.38
2016-10-28T05:20:59.066Z,40.38
2016-10-28T05:21:58.111Z,40.19
2016-10-28T05:22:58.127Z,40.28
2016-10-28T05:23:59.238Z,40.19
2016-10-28T05:24:58.285Z,40.28
2016-10-28T05:25:58.151Z,40.19
2016-10-28T05:26:58.895Z,40.09
2016-10-28T05:27:58.672Z,40.47
2016-10-28T05:28:58.167Z,40.09
2016-10-28T05:29:59.228Z,40.09
2016-10-28T05:30:58.793Z,40.19
2016-10-28T05:31:58.193Z,40.28
2016-10-28T05:32:57.882Z,40.09
2016-10-28T05:33:58.913Z,40.47
2016-10-28T05:34:57.912Z,40.47
2016-10-28T05:35:57.902Z,40.09
2016-10-28T05:36:59.039Z,40.28
2016-10-28T05:37:58.346Z,40.09
2016-10-28T05:38:59.317Z,40.09
2016-10-28T05:39:58.848Z,40.28
2016-10-28T05:40:58.209Z,40.09
2016-10-28T05:41:57.942Z,40.47
2016-10-28T05:42:59.021Z,40.19
2016-10-28T05:43:58.279Z,39.9
2016-10-28T05:44:58.277Z,40.09
2016-10-28T05:45:59.023Z,40.28
2016-10-28T05:46:58.450Z,40.09
2016-10-28T05:47:58.303Z,40.28
2016-10-28T05:48:59.364Z,40.19
2016-10-28T05:49:58.889Z,40.09
2016-10-28T05:50:58.318Z,40.09
2016-10-28T05:51:59.083Z,39.9
2016-10-28T05:52:58.697Z,40.09
2016-10-28T05:53:58.087Z,39.99
2016-10-28T05:54:59.287Z,40.38
2016-10-28T05:55:59.184Z,40.28
2016-10-28T05:56:58.492Z,40.09
2016-10-28T05:57:59.711Z,40.19
2016-10-28T05:58:59.256Z,40.09
2016-10-28T05:59:58.248Z,40.09
2016-10-28T06:00:58.083Z,40.09
2016-10-28T06:01:59.429Z,40.09
2016-10-28T06:02:58.684Z,40.28
2016-10-28T06:03:58.409Z,40.19
2016-10-28T06:04:59.552Z,40.38
2016-10-28T06:05:58.811Z,40.28
2016-10-28T06:06:58.428Z,40.38
2016-10-28T06:07:59.573Z,40.28
2016-10-28T06:08:58.982Z,40.19
2016-10-28T06:09:58.448Z,40.28
2016-10-28T06:10:59.259Z,40.28
2016-10-28T06:11:58.792Z,40.28
2016-10-28T06:12:58.469Z,40.38
2016-10-28T06:13:59.382Z,40.38
2016-10-28T06:14:59.228Z,40.38
2016-10-28T06:15:58.221Z,40.38
2016-10-28T06:16:58.184Z,40.28
2016-10-28T06:17:59.399Z,40.28
2016-10-28T06:18:58.909Z,40.09
2016-10-28T06:19:59.627Z,39.9
2016-10-28T06:20:59.209Z,40.09
2016-10-28T06:21:58.780Z,39.99
2016-10-28T06:22:58.538Z,40.38
2016-10-28T06:23:59.643Z,40.19
2016-10-28T06:24:58.589Z,40.28
2016-10-28T06:25:58.560Z,40.28
2016-10-28T06:26:59.621Z,40.19
2016-10-28T06:27:58.761Z,40.28
2016-10-28T06:28:58.315Z,40.28
2016-10-28T06:29:59.634Z,40.28
2016-10-28T06:30:59.196Z,40.38
2016-10-28T06:31:58.287Z,40.28
2016-10-28T06:32:59.476Z,40.09
2016-10-28T06:33:59.320Z,39.9
2016-10-28T06:34:58.629Z,40.28
2016-10-28T06:35:59.599Z,40.19
2016-10-28T06:36:59.439Z,39.99
2016-10-28T06:37:58.803Z,40.09
2016-10-28T06:38:59.723Z,40.19
2016-10-28T06:39:59.613Z,40.19
2016-10-28T06:40:58.979Z,40.38
2016-10-28T06:41:58.403Z,40.28
2016-10-28T06:42:59.737Z,40.19
2016-10-28T06:43:59.003Z,40.19
2016-10-28T06:44:58.473Z,40.38
2016-10-28T06:45:59.794Z,40.38
2016-10-28T06:46:59.157Z,40.28
2016-10-28T06:47:58.706Z,40.19
2016-10-28T06:48:59.458Z,40.38
2016-10-28T06:49:59.308Z,40.28
2016-10-28T06:50:58.729Z,40.19
2016-10-28T06:51:59.569Z,40.28
2016-10-28T06:52:59.413Z,40.19
2016-10-28T06:53:58.749Z,40.19
2016-10-28T06:54:59.693Z,40.28
2016-10-28T06:55:59.522Z,40.19
2016-10-28T06:56:58.536Z,39.9
2016-10-28T06:57:59.815Z,39.99
2016-10-28T06:58:59.397Z,39.9
2016-10-28T06:59:58.707Z,40.28
2016-10-28T07:00:59.937Z,40.19
2016-10-28T07:01:59.832Z,39.9
2016-10-28T07:02:59.189Z,40.28
2016-10-28T07:03:58.820Z,40.09
2016-10-28T07:04:59.694Z,40.96
2016-10-28T07:05:58.950Z,41.25
2016-10-28T07:06:58.837Z,41.73
2016-10-28T07:07:59.666Z,41.35
2016-10-28T07:08:59.387Z,39.9
2016-10-28T07:10:00.759Z,40.67
2016-10-28T07:10:59.669Z,40.96
2016-10-28T07:11:59.508Z,40.96
2016-10-28T07:12:58.565Z,41.05
2016-10-28T07:13:58.587Z,40.86
2016-10-28T07:14:59.630Z,40.96
2016-10-28T07:15:58.999Z,40.96
2016-10-28T07:16:59.910Z,41.05
2016-10-28T07:17:59.806Z,40.67
2016-10-28T07:18:58.749Z,41.15
2016-10-28T07:20:00.042Z,41.25
2016-10-28T07:20:59.926Z,41.35
2016-10-28T07:21:59.253Z,41.15
2016-10-28T07:23:00.040Z,41.15
2016-10-28T07:24:00.050Z,40.86
2016-10-28T07:24:59.373Z,41.15
2016-10-28T07:25:59.015Z,41.05
2016-10-28T07:27:00.082Z,41.05
2016-10-28T07:27:59.220Z,40.96
2016-10-28T07:29:00.340Z,40.86
2016-10-28T07:30:00.039Z,41.25
2016-10-28T07:30:59.603Z,40.19
2016-10-28T07:31:59.107Z,40.47
2016-10-28T07:32:59.881Z,40.09
2016-10-28T07:33:59.465Z,39.92
2016-10-28T07:34:58.773Z,38.95
2016-10-28T07:36:00.054Z,38.68
2016-10-28T07:36:59.536Z,38.48
2016-10-28T07:38:01.250Z,38.29
2016-10-28T07:39:00.126Z,38.02
2016-10-28T07:39:59.709Z,37.82
2016-10-28T07:40:59.021Z,37.36
2016-10-28T07:42:00.228Z,36.88
2016-10-28T07:42:59.830Z,36.58
2016-10-28T07:43:59.138Z,36.41
2016-10-28T07:44:58.783Z,36.22
2016-10-28T07:46:00.318Z,36.41
2016-10-28T07:46:59.260Z,35.64
2016-10-28T07:47:59.231Z,35.36
2016-10-28T07:48:59.979Z,35.36
2016-10-28T07:49:59.382Z,35.17
2016-10-28T07:50:58.879Z,34.8
2016-10-28T07:52:00.035Z,34.88
2016-10-28T07:52:59.872Z,35.09
2016-10-28T07:53:59.099Z,35.09
2016-10-28T07:55:00.147Z,35.19
2016-10-28T07:55:59.944Z,35.38
2016-10-28T07:56:58.989Z,35.19
2016-10-28T07:57:58.874Z,35.09
2016-10-28T07:59:00.067Z,35.19
2016-10-28T07:59:59.374Z,34.89
2016-10-28T08:01:00.296Z,34.8
2016-10-28T08:02:00.188Z,34.89
2016-10-28T08:02:59.597Z,34.8
2016-10-28T08:03:59.226Z,34.89
2016-10-28T08:05:00.411Z,35.19
2016-10-28T08:05:59.409Z,34.8
2016-10-28T08:06:59.249Z,35.11
2016-10-28T08:08:00.385Z,34.7
2016-10-28T08:08:59.548Z,34.91
2016-10-28T08:09:58.961Z,34.72
2016-10-28T08:11:00.019Z,34.91
2016-10-28T08:11:59.917Z,35.11
2016-10-28T08:12:59.290Z,35.21
2016-10-28T08:13:58.989Z,35.01
2016-10-28T08:15:00.104Z,35.11
2016-10-28T08:15:59.035Z,34.81
2016-10-28T08:17:00.596Z,35.01
2016-10-28T08:17:59.847Z,34.72
2016-10-28T08:18:59.527Z,34.91
2016-10-28T08:19:59.125Z,34.72
2016-10-28T08:21:00.281Z,34.23
2016-10-28T08:21:59.329Z,34.72
2016-10-28T08:22:59.359Z,34.53
2016-10-28T08:24:00.145Z,34.43
2016-10-28T08:24:59.503Z,34.33
2016-10-28T08:25:59.378Z,34.33
2016-10-28T08:27:00.486Z,34.35
2016-10-28T08:27:59.938Z,34.33
2016-10-28T08:28:59.095Z,34.81
2016-10-28T08:30:00.165Z,34.23
2016-10-28T08:31:00.023Z,34.44
2016-10-28T08:31:59.519Z,34.54
2016-10-28T08:33:00.299Z,34.53
2016-10-28T08:34:00.222Z,34.54
2016-10-28T08:34:59.182Z,34.83
2016-10-28T08:35:59.137Z,35.13
2016-10-28T08:37:00.363Z,35.01
2016-10-28T08:37:59.267Z,34.91
2016-10-28T08:39:00.516Z,34.91
2016-10-28T08:40:00.255Z,34.81
2016-10-28T08:40:59.741Z,35.21
2016-10-28T08:43:00.757Z,35.11
2016-10-28T08:43:59.788Z,35.3
2016-10-28T08:44:59.510Z,35.21
2016-10-28T08:46:00.361Z,35.21
2016-10-28T08:46:59.994Z,35.21
2016-10-28T08:47:59.536Z,35.3
2016-10-28T08:49:00.590Z,35.21
2016-10-28T08:50:00.115Z,35.59
2016-10-28T08:50:59.609Z,35.21
2016-10-28T08:52:00.662Z,35.3
2016-10-28T08:53:00.015Z,35.21
2016-10-28T08:53:59.267Z,35.3
2016-10-28T08:55:00.554Z,35.21
2016-10-28T08:56:00.354Z,35.21
2016-10-28T08:56:59.384Z,35.21
2016-10-28T08:58:00.677Z,35.21
2016-10-28T08:59:00.585Z,35.4
2016-10-28T08:59:59.846Z,35.11
2016-10-28T09:00:59.386Z,35.21
2016-10-28T09:02:00.338Z,35.21
2016-10-28T09:02:59.982Z,35.21
2016-10-28T09:03:59.427Z,35.3
2016-10-28T09:05:00.829Z,35.11
2016-10-28T09:05:59.777Z,35.21
2016-10-28T09:06:59.723Z,35.11
2016-10-28T09:08:00.738Z,35.49
2016-10-28T09:08:59.937Z,35.49
2016-10-28T09:09:59.706Z,35.4
2016-10-28T09:11:00.757Z,35.21
2016-10-28T09:12:00.373Z,35.59
2016-10-28T09:12:59.712Z,35.21
2016-10-28T09:14:00.598Z,35.3
2016-10-28T09:15:00.499Z,35.49
2016-10-28T09:15:59.439Z,35.49
2016-10-28T09:16:59.433Z,35.49
2016-10-28T09:18:00.254Z,35.3
2016-10-28T09:18:59.940Z,35.49
2016-10-28T09:20:00.845Z,35.59
2016-10-28T09:21:00.692Z,35.49
2016-10-28T09:22:00.068Z,35.49
2016-10-28T09:23:00.970Z,35.49
2016-10-28T09:24:00.550Z,35.21
2016-10-28T09:25:00.174Z,35.22
2016-10-28T09:25:59.808Z,35.21
2016-10-28T09:27:00.916Z,35.21
2016-10-28T09:28:00.309Z,35.3
2016-10-28T09:28:59.514Z,35.21
2016-10-28T09:30:00.958Z,35.32
2016-10-28T09:31:00.499Z,35.49
2016-10-28T09:31:59.851Z,35.21
2016-10-28T09:33:00.696Z,35.21
2016-10-28T09:34:00.295Z,35.49
2016-10-28T09:34:59.611Z,35.13
2016-10-28T09:36:00.740Z,35.61
2016-10-28T09:37:00.403Z,35.22
2016-10-28T09:38:00.024Z,35.32
2016-10-28T09:38:59.682Z,35.11
2016-10-28T09:40:00.835Z,35.49
2016-10-28T09:41:00.156Z,35.59
2016-10-28T09:42:01.027Z,35.3
2016-10-28T09:43:00.912Z,35.49
2016-10-28T09:44:00.227Z,35.49
2016-10-28T09:45:15.611Z,35.49
2016-10-28T09:46:01.081Z,35.59
2016-10-28T09:47:00.387Z,35.69
2016-10-28T09:47:59.988Z,35.88
2016-10-28T09:49:01.164Z,35.69
2016-10-28T09:50:00.512Z,35.61
2016-10-28T09:51:00.035Z,35.69
2016-10-28T09:52:00.731Z,35.49
2016-10-28T09:53:00.634Z,35.49
2016-10-28T09:54:00.060Z,35.32
2016-10-28T09:55:00.912Z,35.32
2016-10-28T09:56:00.493Z,35.22
2016-10-28T09:57:00.084Z,35.22
2016-10-28T09:57:59.728Z,35.51
2016-10-28T09:59:00.890Z,35.22
2016-10-28T10:00:00.188Z,35.32
2016-10-28T10:01:01.257Z,35.22
2016-10-28T10:02:01.066Z,35.41
2016-10-28T10:03:00.309Z,35.13
2016-10-28T10:03:59.770Z,35.22
2016-10-28T10:05:00.914Z,35.32
2016-10-28T10:06:00.481Z,35.22
2016-10-28T10:06:59.790Z,35.22
2016-10-28T10:08:01.177Z,35.22
2016-10-28T10:09:00.628Z,35.22
2016-10-28T10:10:00.189Z,34.83
2016-10-28T10:11:01.216Z,34.83
2016-10-28T10:12:00.729Z,34.93
2016-10-28T10:13:00.167Z,34.93
2016-10-28T10:14:01.016Z,35.22
2016-10-28T10:15:00.859Z,35.41
2016-10-28T10:16:00.255Z,35.32
2016-10-28T10:16:59.916Z,35.32
2016-10-28T10:18:01.223Z,35.41
2016-10-28T10:19:00.282Z,35.33
2016-10-28T10:19:59.893Z,35.24
2016-10-28T10:21:01.095Z,35.22
2016-10-28T10:22:00.149Z,35.22
2016-10-28T10:22:59.958Z,35.22
2016-10-28T10:24:01.273Z,35.22
2016-10-28T10:25:00.268Z,35.22
2016-10-28T10:25:59.999Z,35.32
2016-10-28T10:27:01.439Z,35.32
2016-10-28T10:28:00.392Z,35.32
2016-10-28T10:29:00.326Z,35.22
2016-10-28T10:30:01.435Z,35.22
2016-10-28T10:31:00.858Z,35.13
2016-10-28T10:32:00.025Z,35.22
2016-10-28T10:33:01.161Z,35.41
2016-10-28T10:34:00.954Z,35.13
2016-10-28T10:35:00.360Z,35.22
2016-10-28T10:36:00.012Z,35.22
2016-10-28T10:37:01.070Z,35.22
2016-10-28T10:38:00.429Z,35.22
2016-10-28T10:39:01.346Z,35.13
2016-10-28T10:40:01.191Z,35.32
2016-10-28T10:41:00.600Z,35.22
2016-10-28T10:42:01.485Z,35.22
2016-10-28T10:43:01.363Z,35.32
2016-10-28T10:44:00.358Z,35.51
2016-10-28T10:45:00.388Z,35.13
2016-10-28T10:46:01.487Z,35.22
2016-10-28T10:47:00.489Z,35.22
2016-10-28T10:48:00.098Z,35.51
2016-10-28T10:49:01.157Z,35.51
2016-10-28T10:50:00.856Z,35.51
2016-10-28T10:51:01.837Z,35.61
2016-10-28T10:52:01.224Z,35.41
2016-10-28T10:53:00.727Z,35.51
2016-10-28T10:54:00.193Z,35.22
2016-10-28T10:55:01.332Z,35.51
2016-10-28T10:56:01.180Z,35.32
2016-10-28T10:57:00.477Z,35.51
2016-10-28T10:58:00.229Z,35.61
2016-10-28T10:59:01.335Z,35.61
2016-10-28T11:00:00.644Z,35.51
2016-10-28T11:01:01.570Z,35.51
2016-10-28T11:02:01.468Z,35.61
2016-10-28T11:03:00.718Z,35.61
2016-10-28T11:04:01.598Z,35.61
2016-10-28T11:05:01.265Z,35.41
2016-10-28T11:06:00.892Z,35.51
2016-10-28T11:07:00.555Z,35.51
2016-10-28T11:08:01.705Z,35.51
2016-10-28T11:09:01.010Z,35.51
2016-10-28T11:10:00.267Z,35.41
2016-10-28T11:11:01.398Z,35.61
2016-10-28T11:12:00.827Z,35.51
2016-10-28T11:13:00.654Z,35.61
2016-10-28T11:14:01.700Z,35.9
2016-10-28T11:15:01.269Z,36
2016-10-28T11:16:00.678Z,35.98
2016-10-28T11:17:00.317Z,36.56
2016-10-28T11:18:01.088Z,36.95
2016-10-28T11:19:00.387Z,36.66
2016-10-28T11:20:01.658Z,36.54
2016-10-28T11:21:01.561Z,37.03
2016-10-28T11:22:00.814Z,36.83
2016-10-28T11:23:01.738Z,36.64
2016-10-28T11:24:01.312Z,36.74
2016-10-28T11:25:00.686Z,36.54
2016-10-28T11:26:00.386Z,36.93
2016-10-28T11:27:01.799Z,37.24
2016-10-28T11:28:01.107Z,37.32
2016-10-28T11:29:00.722Z,37.61
2016-10-28T11:30:01.466Z,37.41
2016-10-28T11:31:00.918Z,36.93
2016-10-28T11:32:00.433Z,37.05
2016-10-28T11:33:01.607Z,37.32
2016-10-28T11:34:01.353Z,37.32
2016-10-28T11:35:00.456Z,37.32
2016-10-28T11:36:01.654Z,37.32
2016-10-28T11:37:01.234Z,36.74
2016-10-28T11:38:00.800Z,37.13
2016-10-28T11:39:00.486Z,36.83
2016-10-28T11:40:01.693Z,36.56
2016-10-28T11:41:00.646Z,37.05
2016-10-28T11:42:01.876Z,37.63
2016-10-28T11:43:01.420Z,37.32
2016-10-28T11:44:00.720Z,37.34
2016-10-28T11:45:00.573Z,37.81
2016-10-28T11:46:01.666Z,37.61
2016-10-28T11:47:01.206Z,36.93
2016-10-28T11:48:00.917Z,38.09
2016-10-28T11:49:01.741Z,38
2016-10-28T11:50:01.009Z,37.9
2016-10-28T11:51:00.889Z,37.81
2016-10-28T11:52:01.611Z,37.71
2016-10-28T11:53:01.446Z,37.81
2016-10-28T11:54:00.582Z,37.41
2016-10-28T11:55:01.723Z,37.32
2016-10-28T11:56:01.299Z,37.81
2016-10-28T11:57:00.603Z,37.73
2016-10-28T11:58:00.615Z,38.19
2016-10-28T11:59:01.381Z,38.39
2016-10-28T12:00:01.035Z,38.48
2016-10-28T12:01:02.022Z,38.31
2016-10-28T12:02:01.567Z,38.12
2016-10-28T12:03:00.827Z,37.82
2016-10-28T12:04:02.096Z,38.31
2016-10-28T12:05:01.727Z,37.82
2016-10-28T12:06:01.296Z,38.02
2016-10-28T12:07:00.991Z,38.5
2016-10-28T12:08:01.849Z,38.4
2016-10-28T12:09:01.431Z,39.36
2016-10-28T12:10:00.696Z,38.78
2016-10-28T12:11:01.828Z,38.5
2016-10-28T12:12:01.544Z,38.5
2016-10-28T12:13:00.800Z,38.89
2016-10-28T12:14:02.098Z,38.89
2016-10-28T12:15:01.761Z,38.6
2016-10-28T12:16:00.749Z,38.87
2016-10-28T12:17:01.867Z,38.7
2016-10-28T12:18:01.522Z,38.87
2016-10-28T12:19:01.096Z,38.4
2016-10-28T12:20:02.064Z,38.31
2016-10-28T12:21:01.597Z,38.4
2016-10-28T12:22:01.266Z,38.99
2016-10-28T12:23:02.184Z,38.58
2016-10-28T12:24:01.806Z,38.39
2016-10-28T12:25:01.027Z,38.39
2016-10-28T12:26:01.123Z,38.48
2016-10-28T12:27:02.211Z,38.02
2016-10-28T12:28:01.494Z,38.12
2016-10-28T12:29:00.829Z,38.5
2016-10-28T12:30:02.250Z,38.31
2016-10-28T12:31:01.633Z,38.7
2016-10-28T12:32:01.163Z,38.78
2016-10-28T12:33:02.034Z,38.87
2016-10-28T12:34:01.443Z,38.87
2016-10-28T12:35:01.187Z,38.78
2016-10-28T12:36:02.056Z,38.78
2016-10-28T12:37:01.892Z,38.96
2016-10-28T12:38:01.012Z,39.45
2016-10-28T12:39:00.905Z,39.45
2016-10-28T12:40:01.754Z,39.04
2016-10-28T12:41:01.324Z,39.26
2016-10-28T12:42:00.923Z,39.14
2016-10-28T12:43:01.866Z,39.14
2016-10-28T12:44:01.502Z,39.34
2016-10-28T12:45:02.496Z,39.92
2016-10-28T12:46:02.035Z,39.82
2016-10-28T12:47:01.658Z,40.21
2016-10-28T12:48:00.971Z,39.62
2016-10-28T12:49:02.425Z,39.82
2016-10-28T12:50:01.985Z,40.11
2016-10-28T12:51:01.307Z,39.9
2016-10-28T12:52:02.151Z,39.82
2016-10-28T12:53:01.556Z,40.21
2016-10-28T12:54:01.322Z,40.31
2016-10-28T12:55:02.091Z,40.48
2016-10-28T12:56:01.685Z,40.09
2016-10-28T12:57:01.031Z,40.77